createdAt,value
2023-03-26T00:01:16.058Z,28.2
2023-03-26T00:05:26.359Z,14.3
2023-03-26T00:07:29.880Z,28.5
2023-03-26T00:09:33.520Z,19.4
2023-03-26T00:11:37.118Z,20.9
2023-03-26T00:13:40.727Z,17.2
2023-03-26T00:15:44.307Z,25.5
2023-03-26T00:17:47.928Z,22.1
2023-03-26T00:19:54.592Z,23.1
2023-03-26T00:21:58.158Z,30
2023-03-26T00:24:01.756Z,29.6
2023-03-26T00:32:16.177Z,19.6
2023-03-26T00:47:08.414Z,24.6
2023-03-26T00:51:15.884Z,29.2
2023-03-26T00:57:35.579Z,21.8
2023-03-26T00:59:30.107Z,21.5
2023-03-26T01:03:40.519Z,25.1
2023-03-26T01:05:43.938Z,24.4
2023-03-26T01:07:47.656Z,30.5
2023-03-26T01:09:51.141Z,21.3
2023-03-26T01:11:54.757Z,19.8
2023-03-26T01:22:15.829Z,28.7
2023-03-26T01:24:19.452Z,29.5
2023-03-26T01:28:26.626Z,37.6
2023-03-26T01:35:43.951Z,27.3
2023-03-26T01:39:51.060Z,23.1
2023-03-26T01:41:54.682Z,28.2
2023-03-26T01:46:04.930Z,29.1
2023-03-26T01:50:12.147Z,37.8
2023-03-26T01:52:15.758Z,36.5
2023-03-26T01:54:19.360Z,41.8
2023-03-26T01:56:22.965Z,26.6
2023-03-26T01:58:29.649Z,33.5
2023-03-26T02:00:33.229Z,23.4
2023-03-26T02:02:37.042Z,22.9
2023-03-26T02:04:40.448Z,26.2
2023-03-26T02:08:47.656Z,23.6
2023-03-26T02:10:51.304Z,21
2023-03-26T02:12:57.947Z,37.9
2023-03-26T02:15:01.583Z,25.4
2023-03-26T02:17:05.141Z,37.7
2023-03-26T02:19:08.763Z,34.2
2023-03-26T02:21:12.482Z,27.7
2023-03-26T02:23:15.989Z,28.8
2023-03-26T02:25:19.646Z,27
2023-03-26T02:27:26.310Z,37.5
2023-03-26T02:29:29.890Z,25.2
2023-03-26T02:31:33.517Z,24
2023-03-26T02:32:37.068Z,26.6
2023-03-26T02:59:29.857Z,24.3
2023-03-26T03:01:33.543Z,27.2
2023-03-26T03:03:37.057Z,35.9
2023-03-26T03:05:40.690Z,32.3
2023-03-26T03:07:45.480Z,30.4
2023-03-26T03:11:54.560Z,32.1
2023-03-26T03:13:58.168Z,33
2023-03-26T03:16:01.787Z,28.8
2023-03-26T03:22:12.595Z,27.7
2023-03-26T03:24:19.305Z,31.5
2023-03-26T03:29:29.863Z,28.5
2023-03-26T03:31:33.471Z,36.2
2023-03-26T03:33:37.032Z,25
2023-03-26T03:35:40.753Z,24.2
2023-03-26T03:39:50.937Z,26.4
2023-03-26T03:43:58.163Z,34.6
2023-03-26T03:46:01.811Z,33.8
2023-03-26T03:48:05.436Z,30.3
2023-03-26T03:52:15.655Z,39.7
2023-03-26T03:54:19.256Z,26.9
2023-03-26T03:56:22.884Z,26
2023-03-26T04:00:30.076Z,28.3
2023-03-26T04:02:33.738Z,24
2023-03-26T04:04:37.388Z,25.3
2023-03-26T04:08:47.639Z,25.1
2023-03-26T04:14:58.409Z,30.9
2023-03-26T04:17:02.002Z,20.9
2023-03-26T04:19:05.610Z,33
2023-03-26T04:21:12.295Z,34.7
2023-03-26T04:23:15.865Z,16.3
2023-03-26T04:36:07.066Z,17.6
2023-03-26T04:38:10.638Z,21.8
2023-03-26T04:42:17.887Z,25.6
2023-03-26T04:48:33.277Z,37.8
2023-03-26T04:50:36.851Z,34.9
2023-03-26T04:52:41.277Z,23.7
2023-03-26T04:54:44.084Z,35.5
2023-03-26T04:56:47.672Z,42.2
2023-03-26T04:58:51.308Z,34.9
2023-03-26T05:00:54.900Z,39.8
2023-03-26T05:09:12.373Z,41.9
2023-03-26T05:11:16.009Z,34.2
2023-03-26T05:13:19.577Z,40.5
2023-03-26T05:15:23.199Z,36.8
2023-03-26T05:17:29.891Z,36.1
2023-03-26T05:19:33.407Z,32.4
2023-03-26T05:24:43.990Z,50.9
2023-03-26T05:28:52.768Z,30.7
2023-03-26T05:30:57.900Z,43
2023-03-26T05:33:01.596Z,29.4
2023-03-26T05:35:05.080Z,40.1
2023-03-26T05:37:08.672Z,37.6
2023-03-26T05:41:15.917Z,42.3
2023-03-26T05:45:26.199Z,28.7
2023-03-26T05:47:29.833Z,41
2023-03-26T05:49:33.395Z,36.5
2023-03-26T05:51:37.032Z,36
2023-03-26T05:53:40.606Z,31.3
2023-03-26T05:55:44.208Z,35.7
2023-03-26T05:57:47.993Z,38.7
2023-03-26T05:59:54.444Z,40.6
2023-03-26T06:01:58.080Z,45.6
2023-03-26T06:04:01.747Z,40.4
2023-03-26T06:06:05.283Z,54.6
2023-03-26T06:08:08.908Z,33.4
2023-03-26T06:10:18.116Z,51.4
2023-03-26T06:12:16.078Z,39.6
2023-03-26T06:14:22.748Z,44.5
2023-03-26T06:18:29.976Z,55.2
2023-03-26T06:19:33.279Z,46.7
2023-03-26T06:23:40.495Z,35
2023-03-26T06:25:44.070Z,42.9
2023-03-26T06:27:50.721Z,37.2
2023-03-26T06:29:54.361Z,65.9
2023-03-26T06:32:06.160Z,41.8
2023-03-26T06:34:01.541Z,36.7
2023-03-26T06:36:05.174Z,41.6
2023-03-26T06:38:08.696Z,53.4
2023-03-26T06:40:13.068Z,51.6
2023-03-26T06:42:19.007Z,59.8
2023-03-26T06:44:22.596Z,53.4
2023-03-26T06:48:29.838Z,48.8
2023-03-26T06:50:33.436Z,47.7
2023-03-26T06:52:37.051Z,53.3
2023-03-26T06:54:40.615Z,58
2023-03-26T06:56:47.334Z,55
2023-03-26T06:58:50.892Z,47
2023-03-26T07:00:55.120Z,51.2
2023-03-26T07:02:58.144Z,59
2023-03-26T07:05:01.701Z,57.9
2023-03-26T07:07:05.302Z,49.8
2023-03-26T07:09:08.881Z,57.5
2023-03-26T07:11:15.551Z,49
2023-03-26T07:13:19.117Z,47.2
2023-03-26T07:15:22.735Z,64.2
2023-03-26T07:16:26.160Z,54.3
2023-03-26T07:18:29.697Z,46
2023-03-26T07:20:33.325Z,49.6
2023-03-26T07:24:43.551Z,48.2
2023-03-26T07:26:47.177Z,47.2
2023-03-26T07:29:03.863Z,57.9
2023-03-26T07:30:54.557Z,46.6
2023-03-26T07:32:57.955Z,74
2023-03-26T07:41:15.437Z,54.1
2023-03-26T07:47:26.389Z,56.4
2023-03-26T07:53:40.191Z,39
2023-03-26T07:55:43.521Z,61.1
2023-03-26T07:57:47.243Z,41
2023-03-26T08:06:01.511Z,31.5
2023-03-26T08:08:08.183Z,34.1
2023-03-26T08:10:12.022Z,38
2023-03-26T08:12:15.391Z,24.9
2023-03-26T08:14:33.703Z,20.4
2023-03-26T08:26:58.316Z,21
2023-03-26T08:45:33.785Z,15.1
2023-03-26T08:47:37.413Z,16
2023-03-26T08:53:51.266Z,18.7
2023-03-26T08:55:54.859Z,21.2
2023-03-26T09:00:02.986Z,13.7
2023-03-26T09:02:05.661Z,23.1
2023-03-26T09:06:15.871Z,15.3
2023-03-26T09:08:19.476Z,13.2
2023-03-26T09:09:22.787Z,35.4
2023-03-26T09:13:29.997Z,12.8
2023-03-26T09:19:43.818Z,11.7
2023-03-26T09:21:47.453Z,12.2
2023-03-26T09:23:51.044Z,16.3
2023-03-26T09:25:54.642Z,13.1
2023-03-26T09:30:01.814Z,14.1
2023-03-26T09:46:36.704Z,11.3
2023-03-26T09:48:40.288Z,16
2023-03-26T09:54:51.008Z,11.3
2023-03-26T09:56:54.627Z,8.2
2023-03-26T09:58:58.195Z,10.5
2023-03-26T10:01:04.851Z,16.7
2023-03-26T10:05:12.015Z,12.6
2023-03-26T10:06:15.324Z,22.3
2023-03-26T10:31:04.544Z,12.3
2023-03-26T10:33:08.080Z,15.2
2023-03-26T10:37:15.295Z,11
2023-03-26T10:39:36.397Z,13.8
2023-03-26T10:41:22.970Z,14.7
2023-03-26T10:43:29.575Z,24.1
2023-03-26T10:45:33.170Z,17.3
2023-03-26T10:47:36.789Z,8.8
2023-03-26T10:49:40.347Z,12.6
2023-03-26T10:51:43.924Z,13.3
2023-03-26T10:53:47.547Z,9.3
2023-03-26T10:55:51.135Z,22.4
2023-03-26T10:57:57.813Z,16.2
2023-03-26T11:00:01.428Z,8.5
2023-03-26T11:02:04.969Z,18.6
2023-03-26T11:03:08.411Z,15
2023-03-26T11:07:15.522Z,13.2
2023-03-26T11:13:29.361Z,16.6
2023-03-26T11:15:32.950Z,17.4
2023-03-26T11:17:40.627Z,26.2
2023-03-26T11:19:40.136Z,20
2023-03-26T11:21:43.720Z,15.1
2023-03-26T11:23:47.318Z,19.9
2023-03-26T11:25:53.963Z,9.5
2023-03-26T11:27:57.526Z,13.2
2023-03-26T11:30:01.175Z,12.4
2023-03-26T11:32:04.703Z,24.8
2023-03-26T11:34:08.311Z,20.2
2023-03-26T11:36:11.926Z,15.7
2023-03-26T11:40:22.126Z,9.1
2023-03-26T11:44:29.333Z,12.3
2023-03-26T11:46:33.886Z,13.2
2023-03-26T11:48:36.495Z,13.3
2023-03-26T11:54:50.353Z,21.8
2023-03-26T11:57:05.968Z,11.3
2023-03-26T11:58:57.515Z,15.1
2023-03-26T12:01:21.880Z,22.6
2023-03-26T12:03:25.477Z,16.7
2023-03-26T12:05:29.069Z,16.4
2023-03-26T12:07:35.751Z,20.3
2023-03-26T12:13:46.502Z,17.8
2023-03-26T12:17:53.801Z,14.6
2023-03-26T12:19:57.283Z,11.5
2023-03-26T12:22:03.932Z,9.9
2023-03-26T12:24:07.522Z,9.1
2023-03-26T12:26:11.107Z,21.5
2023-03-26T12:28:14.660Z,21.8
2023-03-26T12:30:18.279Z,20.4
2023-03-26T12:32:22.490Z,7.7
2023-03-26T12:34:25.487Z,14.2
2023-03-26T12:36:32.102Z,20.7
2023-03-26T12:38:35.748Z,14.2
2023-03-26T12:44:49.732Z,13.3
2023-03-26T12:48:53.659Z,26.2
2023-03-26T12:51:00.306Z,13
2023-03-26T12:53:03.864Z,11.2
2023-03-26T12:56:10.763Z,13.9
2023-03-26T12:58:14.371Z,9.6
2023-03-26T13:00:17.937Z,10.2
2023-03-26T13:02:21.660Z,9
2023-03-26T13:04:28.142Z,24.2
2023-03-26T13:06:31.762Z,12.2
2023-03-26T13:08:35.400Z,72.2
2023-03-26T13:10:38.925Z,10.4
2023-03-26T13:14:46.070Z,19.1
2023-03-26T13:16:49.714Z,19
2023-03-26T13:18:56.277Z,20.9
2023-03-26T13:20:59.863Z,17
2023-03-26T13:27:10.577Z,10.8
2023-03-26T13:29:14.115Z,19.3
2023-03-26T13:33:24.358Z,15
2023-03-26T13:35:28.095Z,28.2
2023-03-26T13:43:42.280Z,10.9
2023-03-26T13:49:56.005Z,5.9
2023-03-26T13:53:02.892Z,13.3
2023-03-26T13:55:06.465Z,10.2
2023-03-26T13:57:10.134Z,14.1
2023-03-26T13:59:13.602Z,8.3
2023-03-26T14:01:20.248Z,10.6
2023-03-26T14:03:23.823Z,6.3
2023-03-26T14:05:27.361Z,12.1
2023-03-26T14:07:30.944Z,16.1
2023-03-26T14:09:34.519Z,11
2023-03-26T14:15:48.304Z,5.5
2023-03-26T14:34:23.373Z,9.4
2023-03-26T14:38:30.476Z,8.3
2023-03-26T14:40:34.038Z,19.6
2023-03-26T14:46:47.959Z,9.9
2023-03-26T14:48:51.411Z,9.3
2023-03-26T14:54:02.418Z,8.2
2023-03-26T14:56:06.011Z,15.3
2023-03-26T14:58:12.627Z,15.1
2023-03-26T15:02:19.861Z,11.6
2023-03-26T15:04:23.397Z,11.5
2023-03-26T15:06:26.978Z,9.8
2023-03-26T15:08:33.565Z,12.8
2023-03-26T15:10:34.130Z,12.2
2023-03-26T15:12:40.783Z,11.9
2023-03-26T15:16:47.967Z,9.5
2023-03-26T15:22:58.716Z,13
2023-03-26T15:25:02.302Z,16.5
2023-03-26T15:27:08.954Z,12.1
2023-03-26T15:43:40.745Z,9.6
2023-03-26T15:48:02.598Z,24.1
2023-03-26T15:50:06.152Z,7.3
2023-03-26T15:52:09.794Z,8
2023-03-26T15:56:20.025Z,6.9
2023-03-26T15:58:23.564Z,10.3
2023-03-26T16:00:27.185Z,6.7
2023-03-26T16:02:30.828Z,12.2
2023-03-26T16:06:37.968Z,10.5
2023-03-26T16:08:44.644Z,8.5
2023-03-26T16:10:48.238Z,3.7
2023-03-26T16:14:55.453Z,11.7
2023-03-26T16:19:02.685Z,31.6
2023-03-26T16:21:06.285Z,10.8
2023-03-26T16:23:12.935Z,9.3
2023-03-26T16:25:26.903Z,8.8
2023-03-26T16:27:20.139Z,15.1
2023-03-26T16:29:24.105Z,9.5
2023-03-26T16:31:38.477Z,4.6
2023-03-26T16:33:31.341Z,6.1
2023-03-26T16:39:46.745Z,7.9
2023-03-26T16:41:50.428Z,12.4
2023-03-26T16:42:53.676Z,11
2023-03-26T16:44:57.257Z,13.8
2023-03-26T16:47:00.846Z,10.9
2023-03-26T16:49:04.493Z,7.9
2023-03-26T16:51:11.148Z,14.6
2023-03-26T17:01:29.214Z,11.2
2023-03-26T17:03:32.896Z,16.2
2023-03-26T17:05:39.483Z,15.4
2023-03-26T17:07:43.868Z,23.8
2023-03-26T17:11:50.282Z,8.7
2023-03-26T17:13:53.934Z,12
2023-03-26T17:15:57.513Z,15.6
2023-03-26T17:18:01.250Z,11.3
2023-03-26T17:20:07.807Z,12.1
2023-03-26T17:22:11.421Z,8.5
2023-03-26T17:26:18.659Z,20.4
2023-03-26T17:32:29.491Z,13.2
2023-03-26T17:34:36.163Z,15.6
2023-03-26T17:38:45.197Z,4.6
2023-03-26T17:39:46.706Z,6.5
2023-03-26T17:43:53.962Z,13.4
2023-03-26T17:46:03.962Z,20.4
2023-03-26T17:48:04.293Z,4.8
2023-03-26T17:50:07.871Z,7.2
2023-03-26T17:52:11.490Z,5.4
2023-03-26T17:54:15.096Z,7.2
2023-03-26T17:56:18.730Z,9.8
2023-03-26T17:58:22.385Z,10
2023-03-26T18:08:43.444Z,16.5
2023-03-26T18:14:54.305Z,8.1
2023-03-26T18:31:29.458Z,7.5
2023-03-26T18:33:33.049Z,6.3
2023-03-26T18:35:36.675Z,6.8
2023-03-26T18:36:40.032Z,14.8
2023-03-26T18:38:43.636Z,9.4
2023-03-26T18:42:53.114Z,10.1
2023-03-26T18:45:01.154Z,12.2
2023-03-26T18:47:01.165Z,3.9
2023-03-26T18:49:04.816Z,7.3
2023-03-26T18:51:08.390Z,8.4
2023-03-26T18:53:12.026Z,11.8
2023-03-26T19:03:33.336Z,6.1
2023-03-26T19:22:08.936Z,9.6
2023-03-26T19:24:12.535Z,13.1
2023-03-26T19:26:16.174Z,6.8
2023-03-26T19:28:22.859Z,6.1
2023-03-26T19:30:26.497Z,11
2023-03-26T19:32:30.133Z,4.5
2023-03-26T19:39:01.536Z,9.4
2023-03-26T19:43:11.857Z,21.9
2023-03-26T19:45:15.515Z,5.9
2023-03-26T19:47:19.223Z,5.8
2023-03-26T19:49:22.894Z,13.4
2023-03-26T19:51:26.394Z,15.4
2023-03-26T20:01:47.680Z,10.5
2023-03-26T20:03:51.426Z,7.8
2023-03-26T20:14:12.545Z,15.1
2023-03-26T20:16:16.183Z,10.3
2023-03-26T20:18:19.806Z,6.6
2023-03-26T20:20:23.437Z,14.9
2023-03-26T20:22:27.102Z,15.3
2023-03-26T20:26:37.438Z,7
2023-03-26T20:28:47.775Z,4.7
2023-03-26T20:29:44.428Z,6.1
2023-03-26T20:31:48.136Z,10.7
2023-03-26T20:33:51.749Z,9.3
2023-03-26T20:35:55.813Z,4.8
2023-03-26T20:38:02.074Z,7.7
2023-03-26T20:40:05.759Z,10.7
2023-03-26T20:42:09.390Z,20.8
2023-03-26T20:44:13.031Z,8.5
2023-03-26T20:46:16.695Z,3.6
2023-03-26T20:48:20.332Z,10.6
2023-03-26T20:50:23.947Z,12.3
2023-03-26T20:52:30.722Z,7.5
2023-03-26T20:54:34.308Z,12.2
2023-03-26T20:56:38.011Z,9.6
2023-03-26T20:58:41.638Z,4.7
2023-03-26T21:04:52.557Z,5.5
2023-03-26T21:09:02.941Z,6.3
2023-03-26T21:11:06.546Z,3.9
2023-03-26T21:13:10.188Z,16.9
2023-03-26T21:15:23.141Z,10.5
2023-03-26T21:17:17.493Z,3.9
2023-03-26T21:21:27.802Z,8.3
2023-03-26T21:26:41.706Z,17
2023-03-26T21:28:42.709Z,7.4
2023-03-26T21:47:18.100Z,9.5
2023-03-26T22:01:47.156Z,13.6
2023-03-26T22:03:53.906Z,10.5
2023-03-26T22:05:58.034Z,11.4
2023-03-26T22:08:01.342Z,8.1
2023-03-26T22:10:05.021Z,6.6
2023-03-26T22:12:08.661Z,5.8
2023-03-26T22:14:12.372Z,16
2023-03-26T22:16:16.070Z,9.5
2023-03-26T22:18:22.887Z,12.6
2023-03-26T22:20:26.515Z,9.8
2023-03-26T22:22:30.153Z,9.7
2023-03-26T22:23:33.528Z,4.2
2023-03-26T22:27:44.078Z,7.4
2023-03-26T22:29:44.724Z,9.6
2023-03-26T22:31:53.133Z,19.3
2023-03-26T22:33:56.693Z,5.8
2023-03-26T22:36:00.415Z,5.6
2023-03-26T22:38:04.099Z,11.9
2023-03-26T22:40:07.750Z,2.6
2023-03-26T22:42:11.492Z,6.6
2023-03-26T22:46:22.052Z,7.7
2023-03-26T22:48:25.732Z,6.8
2023-03-26T22:50:29.343Z,5.4
2023-03-26T22:52:33.004Z,10.9
2023-03-26T22:54:36.633Z,5.6
2023-03-26T22:56:40.334Z,6.8
2023-03-26T22:58:43.943Z,7.8
2023-03-26T23:02:54.399Z,12.1
2023-03-26T23:04:58.057Z,2.7
2023-03-26T23:07:01.748Z,7.3
2023-03-26T23:21:51.199Z,6
2023-03-26T23:23:54.853Z,2.1
2023-03-26T23:25:58.599Z,14.7
2023-03-26T23:28:05.475Z,7.4
2023-03-26T23:30:09.230Z,11.7
2023-03-26T23:32:23.383Z,4.9
2023-03-26T23:42:34.650Z,7.3
2023-03-26T23:44:38.376Z,10.3
2023-03-26T23:46:42.089Z,8.3
2023-03-26T23:48:45.725Z,7.6
2023-03-26T23:50:49.482Z,6.4
2023-03-26T23:52:53.118Z,4.9
2023-03-26T23:54:56.863Z,7.8
2023-03-26T23:57:03.770Z,6.5
2023-03-26T23:59:07.463Z,14.3
